Time;durP1;ratioP1;P1;durP2;ratioP2;P2;SDS_P1;SDS_P2;PMS_P1;PMS_P2;Temp;Humidity;BMP_temperature;BMP_pressure;BME280_temperature;BME280_humidity;BME280_pressure;Samples;Min_cycle;Max_cycle;Signal;HPM_P1;HPM_P2
2022/09/03 00:01:59;;;;;;;;;;;24.90;41.00;;;;;;1540886;75;729;-59
2022/09/03 00:04:05;;;;;;;;;;;24.90;41.00;;;;;;1521245;75;1154;-59
2022/09/03 00:06:09;;;;;;;;;;;24.90;41.00;;;;;;1536183;75;708;-57
2022/09/03 00:08:30;;;;;;;;;;;24.90;41.00;;;;;;1532765;75;858;-58
2022/09/03 00:10:36;;;;;;;;;;;25.00;40.90;;;;;;1529835;75;1936;-58
2022/09/03 00:12:40;;;;;;;;;;;24.90;40.80;;;;;;1528923;75;738;-60
2022/09/03 00:14:58;;;;;;;;;;;24.90;40.80;;;;;;1528062;75;1080;-59
2022/09/03 00:17:02;;;;;;;;;;;25.00;40.70;;;;;;1527375;75;987;-59
2022/09/03 00:19:03;;;;;;;;;;;24.90;40.90;;;;;;1538781;75;720;-59
2022/09/03 00:21:10;;;;;;;;;;;24.90;41.00;;;;;;1531074;75;751;-59
2022/09/03 00:23:13;;;;;;;;;;;24.90;40.90;;;;;;1531485;75;1787;-60
2022/09/03 00:25:17;;;;;;;;;;;24.90;40.90;;;;;;1532521;76;1805;-60
2022/09/03 00:27:20;;;;;;;;;;;25.00;40.90;;;;;;1536459;75;1876;-60
2022/09/03 00:29:23;;;;;;;;;;;25.00;40.80;;;;;;1529202;75;1938;-58
2022/09/03 00:31:27;;;;;;;;;;;25.00;40.70;;;;;;1537046;75;1696;-58
2022/09/03 00:33:29;;;;;;;;;;;25.00;40.70;;;;;;1540169;75;1158;-58
2022/09/03 00:35:32;;;;;;;;;;;25.00;40.70;;;;;;1532302;76;829;-58
2022/09/03 00:37:34;;;;;;;;;;;25.00;40.70;;;;;;1533919;75;1663;-59
2022/09/03 00:39:37;;;;;;;;;;;25.10;40.70;;;;;;1534959;76;703;-59
2022/09/03 00:41:40;;;;;;;;;;;25.10;40.80;;;;;;1529535;75;682;-60
2022/09/03 00:43:45;;;;;;;;;;;25.00;40.70;;;;;;1532419;75;2426;-59
2022/09/03 00:45:48;;;;;;;;;;;25.00;40.80;;;;;;1526723;75;1694;-58
2022/09/03 00:48:08;;;;;;;;;;;25.00;40.80;;;;;;1529027;75;1798;-59
2022/09/03 00:50:14;;;;;;;;;;;25.00;40.70;;;;;;1526580;76;1914;-59
2022/09/03 00:52:35;;;;;;;;;;;25.00;40.70;;;;;;1513284;75;1627;-59
2022/09/03 00:54:55;;;;;;;;;;;25.00;40.70;;;;;;1528748;75;1135;-58
2022/09/03 00:57:01;;;;;;;;;;;25.10;40.70;;;;;;1539491;75;729;-58
2022/09/03 00:59:04;;;;;;;;;;;25.00;40.70;;;;;;1526126;75;771;-59
2022/09/03 01:01:20;;;;;;;;;;;25.10;40.70;;;;;;1531733;75;768;-58
2022/09/03 01:03:30;;;;;;;;;;;25.10;40.70;;;;;;1534620;75;1479;-60
2022/09/03 01:05:36;;;;;;;;;;;25.10;40.70;;;;;;1528114;75;1800;-59
2022/09/03 01:07:45;;;;;;;;;;;25.00;40.70;;;;;;1539520;75;1766;-59
2022/09/03 01:09:55;;;;;;;;;;;25.00;40.70;;;;;;1531165;75;1937;-59
2022/09/03 01:12:12;;;;;;;;;;;25.00;40.70;;;;;;1537328;75;1777;-60
2022/09/03 01:14:13;;;;;;;;;;;25.00;40.60;;;;;;1529672;76;1608;-59
2022/09/03 01:16:16;;;;;;;;;;;25.00;40.70;;;;;;1536772;75;1912;-59
2022/09/03 01:18:20;;;;;;;;;;;25.00;40.70;;;;;;1534403;75;701;-58
2022/09/03 01:20:35;;;;;;;;;;;25.00;40.60;;;;;;1536330;75;1569;-59
2022/09/03 01:22:45;;;;;;;;;;;25.00;40.50;;;;;;1529020;75;672;-59
2022/09/03 01:24:49;;;;;;;;;;;25.10;40.50;;;;;;1531785;76;1727;-58
2022/09/03 01:27:09;;;;;;;;;;;25.10;40.50;;;;;;1530246;75;1900;-59
2022/09/03 01:29:17;;;;;;;;;;;25.10;40.60;;;;;;1532610;75;649;-58
2022/09/03 01:31:36;;;;;;;;;;;25.10;40.50;;;;;;1530160;76;1920;-59
2022/09/03 01:33:39;;;;;;;;;;;25.10;40.50;;;;;;1533793;76;1326;-58
2022/09/03 01:35:48;;;;;;;;;;;25.10;40.50;;;;;;1527258;75;791;-59
2022/09/03 01:37:52;;;;;;;;;;;25.00;40.50;;;;;;1520738;75;529;-60
2022/09/03 01:39:55;;;;;;;;;;;25.00;40.50;;;;;;1533516;75;1971;-59
2022/09/03 01:42:18;;;;;;;;;;;25.10;40.50;;;;;;1531744;76;763;-59
2022/09/03 01:44:22;;;;;;;;;;;25.10;40.50;;;;;;1539589;75;1769;-58
2022/09/03 01:46:26;;;;;;;;;;;25.10;40.50;;;;;;1534209;75;660;-59
2022/09/03 01:48:42;;;;;;;;;;;25.10;40.50;;;;;;1528380;75;1578;-60
2022/09/03 01:50:46;;;;;;;;;;;25.00;40.50;;;;;;1539388;75;1919;-59
2022/09/03 01:53:02;;;;;;;;;;;25.10;40.50;;;;;;1531709;76;705;-59
2022/09/03 01:55:14;;;;;;;;;;;25.00;40.50;;;;;;1528707;75;790;-59
2022/09/03 01:57:27;;;;;;;;;;;25.10;40.50;;;;;;1534678;76;837;-59
2022/09/03 01:59:31;;;;;;;;;;;25.10;40.50;;;;;;1534719;75;1989;-60
2022/09/03 02:01:35;;;;;;;;;;;25.10;40.40;;;;;;1530752;75;1535;-60
2022/09/03 02:03:39;;;;;;;;;;;25.00;40.50;;;;;;1537158;75;1106;-60
2022/09/03 02:05:42;;;;;;;;;;;25.10;40.50;;;;;;1537159;75;760;-60
2022/09/03 02:07:45;;;;;;;;;;;25.00;40.50;;;;;;1529075;76;751;-57
2022/09/03 02:09:47;;;;;;;;;;;25.10;40.50;;;;;;1528782;76;734;-60
2022/09/03 02:11:56;;;;;;;;;;;25.10;40.50;;;;;;1538651;75;1936;-58
2022/09/03 02:13:58;;;;;;;;;;;25.00;40.50;;;;;;1529755;76;1145;-59
2022/09/03 02:16:02;;;;;;;;;;;25.00;40.50;;;;;;1495350;77;1594;-59
2022/09/03 02:18:05;;;;;;;;;;;25.00;40.50;;;;;;1530340;75;753;-59
2022/09/03 02:20:10;;;;;;;;;;;25.00;40.50;;;;;;1537388;75;721;-59
2022/09/03 02:22:11;;;;;;;;;;;25.00;40.60;;;;;;1532365;75;1710;-59
2022/09/03 02:24:13;;;;;;;;;;;24.90;40.70;;;;;;1536300;75;1142;-59
2022/09/03 02:26:19;;;;;;;;;;;24.90;40.80;;;;;;1528511;75;783;-59
2022/09/03 02:28:21;;;;;;;;;;;24.90;40.80;;;;;;1540459;75;727;-60
2022/09/03 02:30:23;;;;;;;;;;;24.80;40.80;;;;;;1540032;75;1939;-59
2022/09/03 02:32:25;;;;;;;;;;;24.70;40.90;;;;;;1521474;75;778;-59
2022/09/03 02:34:27;;;;;;;;;;;24.60;40.90;;;;;;1530681;76;1137;-59
2022/09/03 02:36:33;;;;;;;;;;;24.60;41.10;;;;;;1539766;75;757;-59
2022/09/03 02:38:35;;;;;;;;;;;24.50;41.20;;;;;;1533497;75;803;-58
2022/09/03 02:40:38;;;;;;;;;;;24.60;41.30;;;;;;1530426;75;683;-57
2022/09/03 02:42:40;;;;;;;;;;;24.50;41.30;;;;;;1535254;75;693;-59
2022/09/03 02:44:47;;;;;;;;;;;24.50;41.30;;;;;;1526956;75;1581;-59
2022/09/03 02:46:50;;;;;;;;;;;24.60;41.30;;;;;;1533910;75;736;-59
2022/09/03 02:48:53;;;;;;;;;;;24.60;41.30;;;;;;1524970;75;1127;-59
2022/09/03 02:50:55;;;;;;;;;;;24.60;41.20;;;;;;1534876;75;1897;-59
2022/09/03 02:52:57;;;;;;;;;;;24.50;41.20;;;;;;1533609;76;725;-57
2022/09/03 02:54:58;;;;;;;;;;;24.60;41.20;;;;;;1521000;75;732;-60
2022/09/03 02:57:01;;;;;;;;;;;24.60;41.10;;;;;;1528067;75;740;-60
2022/09/03 02:59:03;;;;;;;;;;;24.60;41.10;;;;;;1524358;75;1703;-59
2022/09/03 03:01:05;;;;;;;;;;;24.60;41.00;;;;;;1533536;75;775;-59
2022/09/03 03:03:07;;;;;;;;;;;24.70;41.00;;;;;;1530191;75;1125;-59
2022/09/03 03:05:09;;;;;;;;;;;24.70;41.10;;;;;;1529252;75;783;-58
2022/09/03 03:07:11;;;;;;;;;;;24.70;41.00;;;;;;1532844;75;747;-58
2022/09/03 03:09:13;;;;;;;;;;;24.70;41.00;;;;;;1537693;75;734;-59
2022/09/03 03:11:18;;;;;;;;;;;24.70;41.00;;;;;;1538449;76;1955;-59
2022/09/03 03:13:20;;;;;;;;;;;24.80;40.90;;;;;;1532372;75;1098;-59
2022/09/03 03:15:22;;;;;;;;;;;24.80;40.80;;;;;;1532812;76;770;-59
2022/09/03 03:17:25;;;;;;;;;;;24.80;40.60;;;;;;1536153;75;641;-58
2022/09/03 03:19:26;;;;;;;;;;;24.80;40.60;;;;;;1535239;75;810;-59
2022/09/03 03:21:29;;;;;;;;;;;24.80;40.60;;;;;;1536398;75;706;-60
2022/09/03 03:23:32;;;;;;;;;;;24.90;40.60;;;;;;1532607;75;1149;-59
2022/09/03 03:25:34;;;;;;;;;;;24.80;40.40;;;;;;1524676;75;1539;-58
2022/09/03 03:27:42;;;;;;;;;;;24.90;40.40;;;;;;1540599;75;818;-60
2022/09/03 03:29:39;;;;;;;;;;;24.90;40.30;;;;;;1528404;75;1621;-59
2022/09/03 03:31:41;;;;;;;;;;;25.00;40.30;;;;;;1533011;75;1918;-59
2022/09/03 03:33:43;;;;;;;;;;;25.00;40.30;;;;;;1537523;75;1136;-58
2022/09/03 03:35:45;;;;;;;;;;;24.90;40.40;;;;;;1524716;76;775;-60
2022/09/03 03:37:47;;;;;;;;;;;24.90;40.30;;;;;;1528226;75;770;-59
2022/09/03 03:39:49;;;;;;;;;;;24.80;40.30;;;;;;1526119;75;1644;-60
2022/09/03 03:41:51;;;;;;;;;;;25.00;40.30;;;;;;1535643;75;741;-59
2022/09/03 03:43:53;;;;;;;;;;;25.00;40.30;;;;;;1536052;76;1164;-60
2022/09/03 03:45:57;;;;;;;;;;;25.00;40.20;;;;;;1523533;75;708;-60
2022/09/03 03:47:59;;;;;;;;;;;24.90;40.20;;;;;;1528666;75;1576;-59
2022/09/03 03:50:01;;;;;;;;;;;25.00;40.10;;;;;;1533740;75;721;-59
2022/09/03 03:52:03;;;;;;;;;;;25.00;40.20;;;;;;1529997;75;1946;-58
2022/09/03 03:54:05;;;;;;;;;;;25.00;40.10;;;;;;1532207;75;1535;-58
2022/09/03 03:56:12;;;;;;;;;;;25.00;40.00;;;;;;1532239;75;763;-60
2022/09/03 03:58:11;;;;;;;;;;;25.00;40.10;;;;;;1534373;75;1486;-59
2022/09/03 04:00:14;;;;;;;;;;;25.00;40.10;;;;;;1529507;75;795;-58
2022/09/03 04:02:16;;;;;;;;;;;24.90;40.10;;;;;;1532904;75;755;-60
2022/09/03 04:04:18;;;;;;;;;;;24.90;40.10;;;;;;1536296;75;1102;-60
2022/09/03 04:06:20;;;;;;;;;;;24.90;40.10;;;;;;1535312;75;769;-58
2022/09/03 04:08:22;;;;;;;;;;;24.90;40.10;;;;;;1525907;75;1617;-60
2022/09/03 04:10:23;;;;;;;;;;;24.90;40.00;;;;;;1527557;75;820;-58
2022/09/03 04:12:26;;;;;;;;;;;24.90;40.00;;;;;;1541766;75;1937;-58
2022/09/03 04:14:28;;;;;;;;;;;25.00;40.20;;;;;;1521246;75;1146;-60
2022/09/03 04:16:31;;;;;;;;;;;24.90;40.10;;;;;;1522558;75;731;-60
2022/09/03 04:18:34;;;;;;;;;;;25.00;40.00;;;;;;1534817;76;726;-59
2022/09/03 04:20:36;;;;;;;;;;;24.90;40.00;;;;;;1530386;75;747;-59
2022/09/03 04:22:38;;;;;;;;;;;25.00;40.00;;;;;;1532750;75;1551;-60
2022/09/03 04:24:39;;;;;;;;;;;24.90;40.00;;;;;;1532278;75;1123;-59
2022/09/03 04:26:41;;;;;;;;;;;24.90;40.00;;;;;;1532386;76;694;-58
2022/09/03 04:28:44;;;;;;;;;;;24.90;40.10;;;;;;1529281;75;731;-59
2022/09/03 04:30:46;;;;;;;;;;;24.90;40.10;;;;;;1539299;75;1925;-59
2022/09/03 04:34:52;;;;;;;;;;;25.00;40.10;;;;;;1595769;73;665;-69
2022/09/03 04:36:56;;;;;;;;;;;24.90;40.10;;;;;;1573622;74;1523;-68
2022/09/03 04:39:00;;;;;;;;;;;24.90;40.10;;;;;;1584008;73;1559;-66
2022/09/03 04:41:02;;;;;;;;;;;24.80;40.20;;;;;;1582983;73;760;-68
2022/09/03 04:43:05;;;;;;;;;;;24.90;40.20;;;;;;1582657;73;1206;-68
2022/09/03 04:45:07;;;;;;;;;;;24.90;40.20;;;;;;1603495;73;728;-71
2022/09/03 04:47:09;;;;;;;;;;;24.90;40.20;;;;;;1607879;73;892;-69
2022/09/03 04:49:11;;;;;;;;;;;25.00;40.30;;;;;;1610344;72;770;-67
2022/09/03 04:51:14;;;;;;;;;;;24.90;40.30;;;;;;1607951;73;1924;-67
2022/09/03 04:53:15;;;;;;;;;;;25.00;40.20;;;;;;1597939;72;1146;-69
2022/09/03 04:55:18;;;;;;;;;;;24.90;40.20;;;;;;1606096;73;742;-67
2022/09/03 04:57:21;;;;;;;;;;;24.90;40.30;;;;;;1556974;74;764;-67
2022/09/03 04:59:22;;;;;;;;;;;24.90;40.20;;;;;;1564303;74;771;-66
2022/09/03 05:01:25;;;;;;;;;;;24.90;40.20;;;;;;1621120;73;743;-67
2022/09/03 05:03:27;;;;;;;;;;;25.00;40.20;;;;;;1608250;73;1125;-67
2022/09/03 05:05:29;;;;;;;;;;;24.90;40.20;;;;;;1624236;72;1635;-67
2022/09/03 05:07:37;;;;;;;;;;;25.00;40.20;;;;;;1561263;75;619;-67
2022/09/03 05:09:35;;;;;;;;;;;24.90;40.30;;;;;;1606575;73;1496;-67
2022/09/03 05:11:37;;;;;;;;;;;24.90;40.40;;;;;;1588273;73;1941;-69
2022/09/03 05:13:39;;;;;;;;;;;24.90;40.50;;;;;;1583719;73;1100;-67
2022/09/03 05:15:42;;;;;;;;;;;25.00;40.40;;;;;;1558859;75;747;-66
2022/09/03 05:17:44;;;;;;;;;;;24.90;40.40;;;;;;1615377;72;762;-66
2022/09/03 05:19:46;;;;;;;;;;;24.90;40.40;;;;;;1616172;73;1679;-66
2022/09/03 05:21:48;;;;;;;;;;;24.90;40.40;;;;;;1622151;73;708;-67
2022/09/03 05:23:50;;;;;;;;;;;24.90;40.30;;;;;;1603733;72;1131;-66
2022/09/03 05:25:59;;;;;;;;;;;25.00;40.40;;;;;;1614260;72;743;-68
2022/09/03 05:28:01;;;;;;;;;;;24.90;40.40;;;;;;1623862;73;653;-68
2022/09/03 05:30:03;;;;;;;;;;;24.90;40.50;;;;;;1627856;73;779;-68
2022/09/03 05:32:06;;;;;;;;;;;25.00;40.30;;;;;;1618595;72;1914;-69
2022/09/03 05:34:08;;;;;;;;;;;24.90;40.40;;;;;;1608418;72;1144;-63
2022/09/03 05:36:14;;;;;;;;;;;24.90;40.40;;;;;;1616983;72;714;-67
2022/09/03 05:38:16;;;;;;;;;;;24.90;40.50;;;;;;1617567;72;787;-66
2022/09/03 05:40:18;;;;;;;;;;;24.90;40.50;;;;;;1621134;72;713;-66
2022/09/03 05:42:20;;;;;;;;;;;24.90;40.50;;;;;;1620137;72;723;-66
2022/09/03 05:44:22;;;;;;;;;;;25.10;40.10;;;;;;1612468;72;1174;-66
2022/09/03 05:46:30;;;;;;;;;;;25.20;39.70;;;;;;1618042;73;1573;-66
2022/09/03 05:48:29;;;;;;;;;;;25.30;39.20;;;;;;1614281;72;1824;-66
2022/09/03 05:50:32;;;;;;;;;;;25.40;39.00;;;;;;1617346;72;782;-66
2022/09/03 05:52:35;;;;;;;;;;;25.40;38.90;;;;;;1628085;72;1913;-65
2022/09/03 05:54:36;;;;;;;;;;;25.40;38.80;;;;;;1612880;72;1131;-67
2022/09/03 05:56:41;;;;;;;;;;;25.40;38.80;;;;;;1558631;74;762;-66
2022/09/03 05:58:44;;;;;;;;;;;25.30;38.80;;;;;;1597545;72;823;-67
2022/09/03 06:00:46;;;;;;;;;;;25.30;38.70;;;;;;1563772;74;1676;-66
2022/09/03 06:02:51;;;;;;;;;;;25.30;38.70;;;;;;1561161;74;1140;-66
2022/09/03 06:04:54;;;;;;;;;;;25.30;38.60;;;;;;1590182;73;876;-68
2022/09/03 06:06:56;;;;;;;;;;;25.20;38.70;;;;;;1601987;72;778;-66
2022/09/03 06:08:59;;;;;;;;;;;25.20;38.70;;;;;;1607626;73;763;-66
2022/09/03 06:11:03;;;;;;;;;;;25.20;38.70;;;;;;1608591;72;781;-66
2022/09/03 06:13:04;;;;;;;;;;;25.30;38.60;;;;;;1590217;73;1933;-67
2022/09/03 06:15:07;;;;;;;;;;;25.20;38.70;;;;;;1607849;73;573;-68
2022/09/03 06:17:10;;;;;;;;;;;25.20;38.60;;;;;;1604411;73;760;-66
2022/09/03 06:19:13;;;;;;;;;;;25.20;38.60;;;;;;1602104;73;878;-66
2022/09/03 06:21:14;;;;;;;;;;;25.20;38.60;;;;;;1607882;73;768;-66
2022/09/03 06:23:17;;;;;;;;;;;25.20;38.60;;;;;;1606246;72;1137;-67
2022/09/03 06:25:19;;;;;;;;;;;25.20;38.60;;;;;;1605311;72;788;-67
2022/09/03 06:27:21;;;;;;;;;;;25.20;38.60;;;;;;1603624;72;765;-67
2022/09/03 06:29:23;;;;;;;;;;;25.20;38.60;;;;;;1556913;74;684;-67
2022/09/03 06:31:24;;;;;;;;;;;25.10;38.70;;;;;;1586382;73;1927;-66
2022/09/03 06:33:29;;;;;;;;;;;25.10;38.70;;;;;;1612283;72;1124;-66
2022/09/03 06:35:30;;;;;;;;;;;25.10;38.70;;;;;;1613458;73;1655;-66
2022/09/03 06:37:32;;;;;;;;;;;25.10;38.70;;;;;;1564631;75;685;-66
2022/09/03 06:39:34;;;;;;;;;;;25.10;38.70;;;;;;1606379;72;739;-67
2022/09/03 06:41:36;;;;;;;;;;;25.10;38.80;;;;;;1603941;73;748;-66
2022/09/03 06:43:38;;;;;;;;;;;25.10;38.80;;;;;;1605038;72;1191;-66
2022/09/03 06:45:40;;;;;;;;;;;25.10;38.80;;;;;;1605423;72;719;-68
2022/09/03 06:47:42;;;;;;;;;;;25.10;38.80;;;;;;1608216;72;734;-66
2022/09/03 06:49:44;;;;;;;;;;;25.10;38.80;;;;;;1608274;73;694;-65
2022/09/03 06:51:46;;;;;;;;;;;25.10;38.80;;;;;;1607392;72;1912;-66
2022/09/03 06:53:49;;;;;;;;;;;25.10;38.70;;;;;;1609285;73;1167;-66
2022/09/03 06:55:54;;;;;;;;;;;25.10;38.90;;;;;;1607623;73;913;-67
2022/09/03 06:57:56;;;;;;;;;;;25.10;38.90;;;;;;1611526;72;747;-67
2022/09/03 06:59:58;;;;;;;;;;;25.10;38.80;;;;;;1606982;73;717;-66
2022/09/03 07:02:02;;;;;;;;;;;25.10;38.80;;;;;;1610685;72;745;-68
2022/09/03 07:04:04;;;;;;;;;;;25.10;38.90;;;;;;1613415;72;2003;-67
2022/09/03 07:06:07;;;;;;;;;;;25.00;38.90;;;;;;1610536;72;798;-68
2022/09/03 07:08:09;;;;;;;;;;;25.00;38.90;;;;;;1608523;72;759;-67
2022/09/03 07:10:14;;;;;;;;;;;25.00;38.90;;;;;;1597079;72;797;-67
2022/09/03 07:12:17;;;;;;;;;;;25.10;38.90;;;;;;1602286;72;1930;-67
2022/09/03 07:14:18;;;;;;;;;;;25.00;38.90;;;;;;1612217;72;1682;-67
2022/09/03 07:16:21;;;;;;;;;;;25.00;38.90;;;;;;1582429;73;715;-68
2022/09/03 07:18:23;;;;;;;;;;;25.00;38.90;;;;;;1614301;73;714;-67
2022/09/03 07:20:34;;;;;;;;;;;25.00;38.90;;;;;;1616007;73;792;-68
2022/09/03 07:22:36;;;;;;;;;;;25.00;39.00;;;;;;1598232;73;713;-67
2022/09/03 07:24:38;;;;;;;;;;;25.00;39.00;;;;;;1597676;73;1102;-67
2022/09/03 07:26:42;;;;;;;;;;;25.00;39.00;;;;;;1569887;74;842;-67
2022/09/03 07:28:48;;;;;;;;;;;25.00;39.00;;;;;;1558042;74;1766;-68
2022/09/03 07:30:47;;;;;;;;;;;25.00;39.10;;;;;;1606881;73;1230;-69
2022/09/03 07:32:50;;;;;;;;;;;25.00;39.10;;;;;;1616423;72;1928;-67
2022/09/03 07:34:52;;;;;;;;;;;25.00;39.20;;;;;;1616823;73;780;-68
2022/09/03 07:36:54;;;;;;;;;;;24.90;39.10;;;;;;1611999;73;638;-68
2022/09/03 07:38:56;;;;;;;;;;;25.00;39.20;;;;;;1563721;74;821;-67
2022/09/03 07:40:58;;;;;;;;;;;24.90;39.20;;;;;;1561769;74;724;-68
2022/09/03 07:43:03;;;;;;;;;;;24.90;39.30;;;;;;1621219;72;1165;-68
2022/09/03 07:45:08;;;;;;;;;;;24.90;39.40;;;;;;1605049;73;1667;-68
2022/09/03 07:47:09;;;;;;;;;;;24.80;39.30;;;;;;1615357;73;1626;-68
2022/09/03 07:49:11;;;;;;;;;;;24.80;39.40;;;;;;1606530;73;681;-67
2022/09/03 07:51:13;;;;;;;;;;;24.90;39.60;;;;;;1613537;72;704;-68
2022/09/03 07:53:19;;;;;;;;;;;24.90;39.60;;;;;;1618679;72;1925;-69
2022/09/03 07:55:21;;;;;;;;;;;24.90;39.60;;;;;;1619214;73;636;-67
2022/09/03 07:57:23;;;;;;;;;;;24.90;39.60;;;;;;1614389;72;737;-68
2022/09/03 07:59:25;;;;;;;;;;;24.80;39.60;;;;;;1607675;73;805;-68
2022/09/03 08:01:33;;;;;;;;;;;24.90;39.70;;;;;;1618698;73;666;-68
2022/09/03 08:03:35;;;;;;;;;;;24.80;39.70;;;;;;1616256;73;1184;-68
2022/09/03 08:05:37;;;;;;;;;;;24.80;39.70;;;;;;1605397;73;784;-68
2022/09/03 08:07:39;;;;;;;;;;;24.80;39.70;;;;;;1613691;73;1526;-66
2022/09/03 08:09:40;;;;;;;;;;;24.80;39.80;;;;;;1607711;73;756;-67
2022/09/03 08:11:42;;;;;;;;;;;24.80;39.80;;;;;;1606520;72;660;-66
2022/09/03 08:13:45;;;;;;;;;;;24.80;39.90;;;;;;1606319;72;1928;-67
2022/09/03 08:15:53;;;;;;;;;;;24.80;39.90;;;;;;1609833;72;751;-67
2022/09/03 08:17:55;;;;;;;;;;;24.80;39.90;;;;;;1599266;73;784;-66
2022/09/03 08:19:57;;;;;;;;;;;24.80;40.00;;;;;;1603090;73;806;-66
2022/09/03 08:21:59;;;;;;;;;;;24.80;40.00;;;;;;1600903;73;757;-67
2022/09/03 08:24:01;;;;;;;;;;;24.80;40.00;;;;;;1597981;73;1135;-66
2022/09/03 08:26:03;;;;;;;;;;;24.80;40.10;;;;;;1592398;73;756;-67
2022/09/03 08:28:05;;;;;;;;;;;24.80;40.20;;;;;;1600101;73;713;-68
2022/09/03 08:30:10;;;;;;;;;;;24.80;40.20;;;;;;1607216;72;726;-67
2022/09/03 08:32:11;;;;;;;;;;;24.80;40.20;;;;;;1604225;73;1931;-66
2022/09/03 08:34:13;;;;;;;;;;;24.80;40.20;;;;;;1607432;72;1124;-70
2022/09/03 08:36:16;;;;;;;;;;;24.80;40.20;;;;;;1609844;72;917;-68
2022/09/03 08:38:18;;;;;;;;;;;24.80;40.30;;;;;;1606112;73;822;-67
2022/09/03 08:40:21;;;;;;;;;;;24.70;40.30;;;;;;1608095;72;754;-67
2022/09/03 08:42:25;;;;;;;;;;;24.70;40.30;;;;;;1607410;72;760;-67
2022/09/03 08:44:46;;;;;;;;;;;24.80;40.40;;;;;;1604957;72;1100;-68
2022/09/03 08:46:55;;;;;;;;;;;24.80;40.50;;;;;;1613947;72;750;-68
2022/09/03 08:48:57;;;;;;;;;;;24.80;40.50;;;;;;1614382;72;678;-67
2022/09/03 08:51:00;;;;;;;;;;;24.70;40.50;;;;;;1614022;72;739;-67
2022/09/03 08:53:12;;;;;;;;;;;24.80;40.40;;;;;;1615473;72;1912;-67
2022/09/03 08:55:35;;;;;;;;;;;24.70;40.50;;;;;;1609164;73;747;-67
2022/09/03 08:57:38;;;;;;;;;;;24.80;40.50;;;;;;1612929;72;730;-67
2022/09/03 08:59:40;;;;;;;;;;;24.70;40.50;;;;;;1614441;72;1932;-66
2022/09/03 09:02:00;;;;;;;;;;;24.80;40.50;;;;;;1617582;72;773;-68
2022/09/03 09:04:06;;;;;;;;;;;24.70;40.50;;;;;;1614635;72;1623;-69
2022/09/03 09:06:10;;;;;;;;;;;24.80;40.50;;;;;;1616126;72;1942;-67
2022/09/03 09:08:13;;;;;;;;;;;24.80;40.60;;;;;;1591667;72;1688;-67
2022/09/03 09:10:34;;;;;;;;;;;24.80;40.60;;;;;;1617451;72;719;-67
2022/09/03 09:12:40;;;;;;;;;;;24.80;40.60;;;;;;1612143;72;1925;-67
2022/09/03 09:15:00;;;;;;;;;;;24.70;40.60;;;;;;1616084;72;1091;-68
2022/09/03 09:17:06;;;;;;;;;;;24.70;40.60;;;;;;1594498;73;821;-69
2022/09/03 09:19:20;;;;;;;;;;;24.70;40.70;;;;;;1590620;73;1489;-67
2022/09/03 09:21:29;;;;;;;;;;;24.70;40.70;;;;;;1528514;76;1170;-69
2022/09/03 09:23:41;;;;;;;;;;;24.80;40.70;;;;;;1580411;73;1088;-68
2022/09/03 09:25:50;;;;;;;;;;;24.80;40.70;;;;;;1586966;73;741;-69
2022/09/03 09:28:05;;;;;;;;;;;24.80;40.70;;;;;;1592857;73;819;-68
2022/09/03 09:30:08;;;;;;;;;;;24.80;40.70;;;;;;1536546;73;1184;-67
2022/09/03 09:32:10;;;;;;;;;;;24.80;40.70;;;;;;1601170;73;779;-67
2022/09/03 09:34:12;;;;;;;;;;;24.80;40.70;;;;;;1602496;73;1901;-68
2022/09/03 09:36:15;;;;;;;;;;;24.80;40.70;;;;;;1557523;74;785;-68
2022/09/03 09:38:19;;;;;;;;;;;24.80;40.80;;;;;;1581976;74;790;-69
2022/09/03 09:40:25;;;;;;;;;;;24.90;40.80;;;;;;1612918;72;1218;-67
2022/09/03 09:42:29;;;;;;;;;;;24.90;40.80;;;;;;1609484;73;708;-67
2022/09/03 09:44:30;;;;;;;;;;;24.90;40.80;;;;;;1612752;72;1594;-66
2022/09/03 09:46:38;;;;;;;;;;;25.00;40.70;;;;;;1616688;72;721;-65
2022/09/03 09:48:45;;;;;;;;;;;25.00;40.70;;;;;;1613671;72;1665;-66
2022/09/03 09:50:44;;;;;;;;;;;25.00;40.80;;;;;;1604710;72;1729;-65
2022/09/03 09:52:46;;;;;;;;;;;25.00;40.80;;;;;;1612686;72;1949;-67
2022/09/03 09:54:48;;;;;;;;;;;25.00;40.80;;;;;;1615882;72;799;-67
2022/09/03 09:56:52;;;;;;;;;;;25.00;40.90;;;;;;1617070;73;774;-67
2022/09/03 09:59:06;;;;;;;;;;;24.90;40.90;;;;;;1615058;72;1910;-66
2022/09/03 10:01:11;;;;;;;;;;;24.90;40.90;;;;;;1612052;72;708;-68
2022/09/03 10:03:13;;;;;;;;;;;25.00;40.90;;;;;;1618016;72;1131;-67
2022/09/03 10:05:22;;;;;;;;;;;24.90;41.00;;;;;;1616544;73;740;-66
2022/09/03 10:07:26;;;;;;;;;;;25.00;41.00;;;;;;1612760;73;713;-68
2022/09/03 10:09:28;;;;;;;;;;;25.00;41.00;;;;;;1616346;73;724;-66
2022/09/03 10:11:31;;;;;;;;;;;25.00;40.90;;;;;;1613880;72;771;-68
2022/09/03 10:13:37;;;;;;;;;;;24.90;41.00;;;;;;1615843;72;1919;-67
2022/09/03 10:15:46;;;;;;;;;;;25.00;41.00;;;;;;1615742;72;1916;-67
2022/09/03 10:17:49;;;;;;;;;;;25.00;41.00;;;;;;1617544;72;731;-67
2022/09/03 10:22:19;;;;;;;;;;;24.90;41.10;;;;;;1614817;72;609;-67
2022/09/03 10:24:28;;;;;;;;;;;25.00;41.10;;;;;;1612712;72;1110;-66
2022/09/03 10:26:31;;;;;;;;;;;24.90;41.10;;;;;;1599336;73;717;-67
2022/09/03 10:28:40;;;;;;;;;;;25.00;41.10;;;;;;1616467;73;803;-68
2022/09/03 10:30:45;;;;;;;;;;;25.00;41.20;;;;;;1617314;72;1607;-67
2022/09/03 10:32:51;;;;;;;;;;;25.00;41.20;;;;;;1609830;72;1922;-66
2022/09/03 10:34:57;;;;;;;;;;;24.90;41.20;;;;;;1532721;73;224262;-59
2022/09/03 10:37:15;;;;;;;;;;;25.00;41.10;;;;;;1594380;72;854;-59
2022/09/03 10:39:37;;;;;;;;;;;25.00;41.10;;;;;;1585280;72;1788;-59
2022/09/03 10:41:47;;;;;;;;;;;25.00;41.20;;;;;;1602813;72;1940;-60
2022/09/03 10:43:53;;;;;;;;;;;25.00;41.10;;;;;;1607381;72;1200;-58
2022/09/03 10:46:00;;;;;;;;;;;25.00;41.20;;;;;;1614464;72;1669;-60
2022/09/03 10:48:06;;;;;;;;;;;24.90;41.30;;;;;;1614423;72;712;-59
2022/09/03 10:50:16;;;;;;;;;;;25.00;41.20;;;;;;1616809;72;878;-59
2022/09/03 10:52:19;;;;;;;;;;;25.00;41.30;;;;;;1613185;72;758;-59
2022/09/03 10:54:23;;;;;;;;;;;25.10;41.30;;;;;;1615357;72;1932;-59
2022/09/03 10:56:26;;;;;;;;;;;25.10;41.40;;;;;;1615496;72;1381;-59
2022/09/03 10:58:33;;;;;;;;;;;25.10;41.30;;;;;;1620717;72;657;-59
2022/09/03 11:00:35;;;;;;;;;;;25.20;41.40;;;;;;1615324;72;662;-59
2022/09/03 11:02:56;;;;;;;;;;;25.20;41.30;;;;;;1610953;72;872;-59
2022/09/03 11:05:06;;;;;;;;;;;25.20;41.30;;;;;;1623220;72;781;-59
2022/09/03 11:07:09;;;;;;;;;;;25.20;41.50;;;;;;1618061;72;820;-59
2022/09/03 11:09:15;;;;;;;;;;;25.20;41.50;;;;;;1611651;72;785;-59
2022/09/03 11:11:25;;;;;;;;;;;25.20;41.70;;;;;;1617581;72;701;-59
2022/09/03 11:13:34;;;;;;;;;;;25.20;41.70;;;;;;1617814;72;1913;-58
2022/09/03 11:15:50;;;;;;;;;;;25.10;41.80;;;;;;1621641;72;845;-59
2022/09/03 11:17:56;;;;;;;;;;;25.20;41.80;;;;;;1621166;72;1028;-59
2022/09/03 11:20:00;;;;;;;;;;;25.10;41.80;;;;;;1614745;72;1821;-59
2022/09/03 11:22:03;;;;;;;;;;;25.10;41.80;;;;;;1611026;72;1664;-58
2022/09/03 11:24:12;;;;;;;;;;;25.10;41.80;;;;;;1612932;72;1152;-58
2022/09/03 11:26:15;;;;;;;;;;;25.20;41.80;;;;;;1618599;72;1762;-59
2022/09/03 11:28:35;;;;;;;;;;;25.10;41.80;;;;;;1618274;72;843;-59
2022/09/03 11:30:38;;;;;;;;;;;25.30;41.70;;;;;;1617982;72;780;-59
2022/09/03 11:32:42;;;;;;;;;;;25.10;41.60;;;;;;1618174;72;969;-60
2022/09/03 11:34:48;;;;;;;;;;;25.10;41.70;;;;;;1610154;72;1915;-59
2022/09/03 11:36:50;;;;;;;;;;;25.10;41.70;;;;;;1618572;72;713;-59
2022/09/03 11:38:52;;;;;;;;;;;25.00;41.80;;;;;;1615038;72;731;-61
2022/09/03 11:40:59;;;;;;;;;;;25.10;41.70;;;;;;1617215;72;880;-58
2022/09/03 11:43:07;;;;;;;;;;;25.00;41.60;;;;;;1625359;72;1159;-61
2022/09/03 11:45:13;;;;;;;;;;;25.00;41.80;;;;;;1613465;72;736;-60
2022/09/03 11:47:16;;;;;;;;;;;24.90;41.80;;;;;;1599152;73;751;-59
2022/09/03 11:49:19;;;;;;;;;;;24.80;41.90;;;;;;1623022;72;772;-60
2022/09/03 11:51:23;;;;;;;;;;;24.90;41.90;;;;;;1612575;72;1853;-60
2022/09/03 11:53:30;;;;;;;;;;;25.00;41.90;;;;;;1617873;72;1938;-61
2022/09/03 11:55:31;;;;;;;;;;;25.00;42.10;;;;;;1613955;72;1441;-59
2022/09/03 11:57:33;;;;;;;;;;;25.00;41.80;;;;;;1621692;72;693;-60
2022/09/03 11:59:34;;;;;;;;;;;25.10;41.70;;;;;;1619874;72;779;-60
2022/09/03 12:01:36;;;;;;;;;;;25.10;41.70;;;;;;1618569;72;817;-60
2022/09/03 12:03:43;;;;;;;;;;;25.10;41.60;;;;;;1619422;72;1138;-59
2022/09/03 12:05:46;;;;;;;;;;;25.10;41.50;;;;;;1616986;72;724;-61
2022/09/03 12:07:54;;;;;;;;;;;25.20;41.60;;;;;;1624678;72;719;-61
2022/09/03 12:10:09;;;;;;;;;;;25.20;41.50;;;;;;1624111;72;771;-61
2022/09/03 12:12:13;;;;;;;;;;;25.10;41.50;;;;;;1611057;72;726;-59
2022/09/03 12:14:22;;;;;;;;;;;25.10;41.70;;;;;;1617581;72;1952;-61
2022/09/03 12:16:34;;;;;;;;;;;25.00;41.70;;;;;;1613509;72;749;-59
2022/09/03 12:18:36;;;;;;;;;;;25.10;41.70;;;;;;1630539;72;752;-59
2022/09/03 12:20:39;;;;;;;;;;;25.00;41.70;;;;;;1626053;72;779;-60
2022/09/03 12:22:41;;;;;;;;;;;25.10;41.60;;;;;;1614331;72;686;-61
2022/09/03 12:24:43;;;;;;;;;;;25.10;41.50;;;;;;1615647;72;1137;-60
2022/09/03 12:26:45;;;;;;;;;;;25.10;41.40;;;;;;1625430;72;748;-60
2022/09/03 12:28:47;;;;;;;;;;;25.10;41.50;;;;;;1609963;72;647;-60